Time;durP1;ratioP1;P1;durP2;ratioP2;P2;SDS_P1;SDS_P2;PMS_P1;PMS_P2;Temp;Humidity;BMP_temperature;BMP_pressure;BME280_temperature;BME280_humidity;BME280_pressure;Samples;Min_cycle;Max_cycle;Signal;HPM_P1;HPM_P2
2023/01/31 00:00:24;;;;;;;6.03;3.40;;;2.30;99.90;;;;;;4953449;29;20703;-65
2023/01/31 00:02:50;;;;;;;4.68;3.10;;;2.20;99.90;;;;;;4952239;28;20204;-65
2023/01/31 00:05:18;;;;;;;5.00;3.17;;;2.20;99.90;;;;;;4953921;29;20236;-65
2023/01/31 00:07:46;;;;;;;2.97;2.53;;;2.20;99.90;;;;;;4953919;29;20200;-65
2023/01/31 00:10:12;;;;;;;2.80;2.17;;;2.20;99.90;;;;;;4952294;29;20636;-65
2023/01/31 00:12:39;;;;;;;4.95;2.70;;;2.20;99.90;;;;;;4953824;29;20205;-65
2023/01/31 00:15:08;;;;;;;6.82;3.13;;;2.20;99.90;;;;;;4953188;29;20247;-65
2023/01/31 00:17:35;;;;;;;6.75;2.85;;;2.20;99.90;;;;;;4953467;29;20204;-65
2023/01/31 00:20:02;;;;;;;8.18;3.25;;;2.10;99.90;;;;;;4952882;29;20220;-65
2023/01/31 00:22:28;;;;;;;5.97;2.92;;;2.00;99.90;;;;;;4953831;29;20208;-65
2023/01/31 00:24:55;;;;;;;4.43;2.17;;;2.00;99.90;;;;;;4952749;29;20553;-65
2023/01/31 00:27:22;;;;;;;3.80;2.85;;;1.90;99.90;;;;;;4953450;29;20224;-65
2023/01/31 00:29:48;;;;;;;4.95;2.80;;;1.90;99.90;;;;;;4952675;29;20207;-65
2023/01/31 00:32:16;;;;;;;5.45;2.70;;;1.80;99.90;;;;;;4952733;29;20212;-65
2023/01/31 00:34:43;;;;;;;4.40;3.05;;;1.70;99.90;;;;;;4953287;29;20236;-65
2023/01/31 00:37:10;;;;;;;5.70;3.08;;;1.70;99.90;;;;;;4952974;29;20239;-65
2023/01/31 00:39:36;;;;;;;4.13;2.70;;;1.60;99.90;;;;;;4952465;29;20252;-65
2023/01/31 00:42:03;;;;;;;4.30;2.78;;;1.50;99.90;;;;;;4952916;29;20213;-65
2023/01/31 00:44:30;;;;;;;4.95;3.22;;;1.50;99.90;;;;;;4952911;29;20272;-65
2023/01/31 00:46:57;;;;;;;3.13;2.83;;;1.40;99.90;;;;;;4951361;29;20224;-65
2023/01/31 00:49:25;;;;;;;2.80;2.38;;;1.40;99.90;;;;;;4949293;29;20205;-65
2023/01/31 00:51:52;;;;;;;4.82;3.25;;;1.40;99.90;;;;;;4951507;29;20633;-65
2023/01/31 00:54:19;;;;;;;3.28;2.55;;;1.50;99.90;;;;;;4951698;29;20221;-65
2023/01/31 00:56:46;;;;;;;2.80;2.55;;;1.50;99.90;;;;;;4952642;29;20742;-65
2023/01/31 00:59:13;;;;;;;4.38;3.30;;;1.40;99.90;;;;;;4953159;29;20210;-65
2023/01/31 01:01:40;;;;;;;3.08;2.28;;;1.40;99.90;;;;;;4953248;29;20672;-65
2023/01/31 01:04:07;;;;;;;4.18;2.80;;;1.40;99.90;;;;;;4953403;29;20284;-65
2023/01/31 01:06:38;;;;;;;3.80;2.53;;;1.30;99.90;;;;;;4953246;29;20231;-65
2023/01/31 01:09:04;;;;;;;5.85;2.85;;;1.30;99.90;;;;;;4952760;29;20204;-65
2023/01/31 01:11:33;;;;;;;3.38;2.70;;;1.20;99.90;;;;;;4953524;29;20208;-64
2023/01/31 01:14:01;;;;;;;2.80;2.20;;;1.30;99.90;;;;;;4952398;28;20227;-65
2023/01/31 01:16:32;;;;;;;4.90;3.22;;;1.20;99.90;;;;;;4953046;29;20227;-64
2023/01/31 01:19:01;;;;;;;5.53;2.67;;;1.20;99.90;;;;;;4952461;29;20204;-65
2023/01/31 01:21:30;;;;;;;2.88;2.05;;;1.20;99.90;;;;;;4953034;29;20719;-65
2023/01/31 01:24:00;;;;;;;2.70;1.92;;;1.20;99.90;;;;;;4952863;29;20276;-65
2023/01/31 01:26:29;;;;;;;3.25;2.38;;;1.30;99.90;;;;;;4952955;29;20224;-65
2023/01/31 01:28:57;;;;;;;12.60;3.78;;;1.30;99.90;;;;;;4952297;29;20205;-65
2023/01/31 01:31:28;;;;;;;9.13;3.83;;;1.20;99.90;;;;;;4952863;29;20201;-65
2023/01/31 01:33:56;;;;;;;3.38;2.63;;;1.20;99.90;;;;;;4952650;29;20206;-65
2023/01/31 01:36:24;;;;;;;3.70;2.30;;;1.30;99.90;;;;;;4952755;29;20231;-65
2023/01/31 01:38:52;;;;;;;5.32;3.00;;;1.20;99.90;;;;;;4952187;29;20200;-66
2023/01/31 01:41:21;;;;;;;4.20;2.67;;;1.20;99.90;;;;;;4952869;29;20208;-66
2023/01/31 01:43:51;;;;;;;5.65;3.47;;;1.20;99.90;;;;;;4952564;29;20208;-66
2023/01/31 01:46:24;;;;;;;4.88;2.80;;;1.20;99.90;;;;;;4952641;29;20228;-65
2023/01/31 01:48:55;;;;;;;4.88;2.83;;;1.20;99.90;;;;;;4951884;29;20216;-66
2023/01/31 01:51:23;;;;;;;4.55;2.35;;;1.20;99.90;;;;;;4958272;29;20209;-65
2023/01/31 01:53:55;;;;;;;5.03;2.40;;;1.20;99.90;;;;;;4957537;29;20213;-65
2023/01/31 01:56:31;;;;;;;5.68;3.00;;;1.20;99.90;;;;;;4956805;29;20236;-65
2023/01/31 01:59:02;;;;;;;4.30;2.50;;;1.20;99.90;;;;;;4958220;29;20700;-65
2023/01/31 02:01:34;;;;;;;9.65;3.00;;;1.10;99.90;;;;;;4955719;29;20204;-66
2023/01/31 02:04:03;;;;;;;5.57;2.65;;;1.10;99.90;;;;;;4954687;29;20208;-65
2023/01/31 02:06:30;;;;;;;4.45;2.20;;;1.10;99.90;;;;;;4952540;29;20231;-65
2023/01/31 02:08:57;;;;;;;2.67;2.10;;;1.00;99.90;;;;;;4951781;29;20201;-65
2023/01/31 02:11:27;;;;;;;3.92;2.72;;;1.00;99.90;;;;;;4952731;29;20572;-65
2023/01/31 02:14:01;;;;;;;8.40;2.03;;;1.00;99.90;;;;;;4952089;29;20208;-65
2023/01/31 02:16:28;;;;;;;4.88;3.00;;;1.00;99.90;;;;;;4952405;29;20319;-65
2023/01/31 02:18:56;;;;;;;3.92;2.72;;;1.00;99.90;;;;;;4951891;29;20263;-65
2023/01/31 02:21:56;;;;;;;4.80;1.77;;;1.00;99.90;;;;;;4952490;29;20216;-65
2023/01/31 02:24:48;;;;;;;4.38;2.72;;;0.90;99.90;;;;;;4947714;29;20201;-64
2023/01/31 02:27:34;;;;;;;3.55;2.47;;;0.90;99.90;;;;;;4955643;28;20228;-65
2023/01/31 02:30:48;;;;;;;4.95;2.35;;;0.90;99.90;;;;;;4956075;29;20208;-64
2023/01/31 02:33:23;;;;;;;3.30;3.00;;;0.80;99.90;;;;;;4956930;29;20204;-65
2023/01/31 02:35:58;;;;;;;3.28;2.85;;;0.80;99.90;;;;;;4955829;29;20223;-64
2023/01/31 02:38:37;;;;;;;3.08;2.47;;;0.80;99.90;;;;;;4955543;29;20226;-65
2023/01/31 02:41:15;;;;;;;3.40;2.40;;;0.80;99.90;;;;;;4955962;29;20211;-65
2023/01/31 02:46:43;;;;;;;3.80;3.17;;;0.80;99.90;;;;;;4955749;29;20302;-65
2023/01/31 02:49:33;;;;;;;2.20;1.73;;;0.70;99.90;;;;;;4955405;29;20223;-65
2023/01/31 02:57:41;;;;;;;3.00;2.70;;;0.60;99.90;;;;;;4955726;29;20204;-65
2023/01/31 03:00:11;;;;;;;5.05;2.65;;;0.60;99.90;;;;;;4955054;29;20250;-66
2023/01/31 03:02:38;;;;;;;10.25;5.30;;;0.60;99.90;;;;;;4955704;29;20208;-66
2023/01/31 03:05:06;;;;;;;5.35;2.90;;;0.60;99.90;;;;;;4955402;29;20204;-66
2023/01/31 03:07:37;;;;;;;4.68;3.08;;;0.70;99.90;;;;;;4955604;29;20203;-66
2023/01/31 03:10:14;;;;;;;4.88;2.28;;;0.70;99.90;;;;;;4955206;29;20205;-66
2023/01/31 03:12:50;;;;;;;4.38;3.88;;;0.70;99.90;;;;;;4955413;29;20215;-65
2023/01/31 03:17:30;;;;;;;10.45;2.75;;;0.70;99.90;;;;;;4955430;29;20228;-66
2023/01/31 03:18:25;;;;;;;2.13;1.90;;;0.70;99.90;;;;;;4954728;29;20208;-66
2023/01/31 03:20:58;;;;;;;5.40;2.53;;;0.70;99.90;;;;;;4955035;29;20200;-66
2023/01/31 03:23:30;;;;;;;5.60;3.00;;;0.70;99.90;;;;;;4955248;29;20211;-66
2023/01/31 03:25:59;;;;;;;6.82;2.40;;;0.70;99.90;;;;;;4954898;29;20640;-65
2023/01/31 03:28:29;;;;;;;3.05;2.70;;;0.60;99.90;;;;;;4954743;29;20651;-66
2023/01/31 03:31:02;;;;;;;3.45;2.28;;;0.70;99.90;;;;;;4955006;29;20208;-66
2023/01/31 03:33:32;;;;;;;5.15;3.80;;;0.70;99.90;;;;;;4955151;29;20213;-66
2023/01/31 03:36:09;;;;;;;5.40;3.10;;;0.70;99.90;;;;;;4954775;29;20630;-66
2023/01/31 03:38:44;;;;;;;2.60;2.03;;;0.80;99.90;;;;;;4953379;28;20235;-66
2023/01/31 03:41:17;;;;;;;7.03;2.67;;;0.80;99.90;;;;;;4955169;29;20246;-66
2023/01/31 03:43:54;;;;;;;4.75;2.55;;;0.80;99.90;;;;;;4954536;29;20204;-68
2023/01/31 03:46:25;;;;;;;3.80;2.80;;;0.80;99.90;;;;;;4955061;29;20223;-66
2023/01/31 03:48:55;;;;;;;5.07;3.35;;;0.80;99.90;;;;;;4954430;29;20252;-65
2023/01/31 03:51:27;;;;;;;2.80;2.47;;;0.80;99.90;;;;;;4954777;29;20211;-66
2023/01/31 03:53:58;;;;;;;11.50;2.95;;;0.80;99.90;;;;;;4954497;29;20208;-65
2023/01/31 03:56:32;;;;;;;4.57;2.50;;;0.80;99.90;;;;;;4954636;29;20718;-65
2023/01/31 03:59:03;;;;;;;3.17;2.50;;;0.70;99.90;;;;;;4954109;29;20204;-66
2023/01/31 04:01:34;;;;;;;7.68;3.50;;;0.70;99.90;;;;;;4955108;29;20209;-65
2023/01/31 04:04:07;;;;;;;4.35;2.30;;;0.70;99.90;;;;;;4954579;29;20259;-66
2023/01/31 04:06:35;;;;;;;5.82;2.90;;;0.60;99.90;;;;;;4954382;29;20595;-66
2023/01/31 04:09:02;;;;;;;4.07;2.28;;;0.50;99.90;;;;;;4953968;29;20212;-66
2023/01/31 04:11:29;;;;;;;3.80;2.70;;;0.50;99.90;;;;;;4954290;29;20931;-66
2023/01/31 04:13:56;;;;;;;5.60;2.83;;;0.50;99.90;;;;;;4954275;29;20208;-65
2023/01/31 04:16:23;;;;;;;3.90;2.15;;;0.40;99.90;;;;;;4954141;29;20265;-65
2023/01/31 04:18:50;;;;;;;3.80;2.30;;;0.40;99.90;;;;;;4953560;29;20618;-66
2023/01/31 04:21:17;;;;;;;4.03;2.85;;;0.40;99.90;;;;;;4954390;29;20299;-65
2023/01/31 04:23:45;;;;;;;4.18;2.75;;;0.40;99.90;;;;;;4953910;29;20215;-65
2023/01/31 04:26:12;;;;;;;3.95;2.40;;;0.30;99.90;;;;;;4953952;29;20224;-66
2023/01/31 04:28:39;;;;;;;3.10;2.38;;;0.30;99.90;;;;;;4953408;29;20204;-65
2023/01/31 04:31:05;;;;;;;5.65;3.67;;;0.30;99.90;;;;;;4953774;29;20207;-65
2023/01/31 04:33:32;;;;;;;7.75;3.22;;;0.20;99.90;;;;;;4953551;29;20581;-66
2023/01/31 04:35:59;;;;;;;2.75;2.30;;;0.30;99.90;;;;;;4952826;29;20240;-66
2023/01/31 04:38:26;;;;;;;4.80;2.75;;;0.20;99.90;;;;;;4952246;29;20201;-66
2023/01/31 04:40:55;;;;;;;5.20;3.38;;;0.20;99.90;;;;;;4952287;29;20747;-65
2023/01/31 04:43:21;;;;;;;2.50;2.30;;;0.20;99.90;;;;;;4952559;29;20203;-67
2023/01/31 04:45:48;;;;;;;4.28;3.22;;;0.10;99.90;;;;;;4952635;29;20212;-66
2023/01/31 04:48:15;;;;;;;5.20;2.90;;;0.10;99.90;;;;;;4953106;28;20303;-66
2023/01/31 04:50:42;;;;;;;2.70;2.40;;;0.10;99.90;;;;;;4952642;29;20235;-65
2023/01/31 04:53:09;;;;;;;4.95;2.58;;;0.10;99.90;;;;;;4952346;29;20264;-65
2023/01/31 04:55:37;;;;;;;2.75;2.30;;;0.10;99.90;;;;;;4951542;29;20291;-65
2023/01/31 04:58:05;;;;;;;6.30;2.50;;;0.10;99.90;;;;;;4952538;29;20625;-65
2023/01/31 05:00:32;;;;;;;3.13;2.72;;;0.10;99.90;;;;;;4951387;29;20668;-66
2023/01/31 05:02:59;;;;;;;5.20;2.35;;;0.10;99.90;;;;;;4951831;29;20193;-66
2023/01/31 05:05:26;;;;;;;4.30;3.13;;;0.10;99.90;;;;;;4951997;29;20213;-65
2023/01/31 05:07:53;;;;;;;3.40;2.70;;;0.10;99.90;;;;;;4951750;29;20204;-66
2023/01/31 05:10:20;;;;;;;6.65;2.50;;;0.10;99.90;;;;;;4951468;29;20189;-66
2023/01/31 05:12:47;;;;;;;4.22;2.55;;;0.10;99.90;;;;;;4951904;29;20356;-66
2023/01/31 05:15:16;;;;;;;3.22;2.40;;;0.10;99.90;;;;;;4951762;29;20234;-64
2023/01/31 05:17:42;;;;;;;5.93;3.53;;;0.10;99.90;;;;;;4948877;29;20287;-64
2023/01/31 05:20:11;;;;;;;3.95;2.70;;;0.10;99.90;;;;;;4951464;29;20552;-65
2023/01/31 05:22:37;;;;;;;3.85;2.70;;;0.10;99.90;;;;;;4951725;29;20297;-64
2023/01/31 05:25:05;;;;;;;4.57;2.88;;;0.10;99.90;;;;;;4951626;29;20228;-66
2023/01/31 05:27:32;;;;;;;2.65;2.45;;;0.10;99.90;;;;;;4950787;29;20200;-66
2023/01/31 05:29:59;;;;;;;6.18;3.05;;;0.10;99.90;;;;;;4951669;29;20797;-66
2023/01/31 05:32:27;;;;;;;5.13;2.53;;;0.10;99.90;;;;;;4951604;29;20344;-67
2023/01/31 05:34:54;;;;;;;7.40;2.75;;;0.20;99.90;;;;;;4952421;29;20669;-68
2023/01/31 05:37:21;;;;;;;6.20;3.33;;;0.20;99.90;;;;;;4952651;29;20205;-69
2023/01/31 05:39:47;;;;;;;6.20;2.50;;;0.10;99.90;;;;;;4951535;29;20208;-68
2023/01/31 05:42:14;;;;;;;3.55;2.45;;;0.10;99.90;;;;;;4952810;29;20658;-68
2023/01/31 05:44:41;;;;;;;3.50;2.60;;;0.10;99.90;;;;;;4952976;29;20212;-68
2023/01/31 05:47:08;;;;;;;6.38;3.40;;;0.10;99.90;;;;;;4952485;29;20228;-67
2023/01/31 05:49:36;;;;;;;5.47;3.15;;;0.00;99.90;;;;;;4952340;29;20205;-67
2023/01/31 05:52:03;;;;;;;3.72;2.75;;;0.00;99.90;;;;;;4952306;29;20248;-67
2023/01/31 05:54:30;;;;;;;3.92;2.65;;;0.00;99.90;;;;;;4952703;29;20207;-68
2023/01/31 05:56:56;;;;;;;3.35;2.70;;;-0.10;99.90;;;;;;4952052;29;20238;-67
2023/01/31 05:59:25;;;;;;;4.40;3.38;;;-0.20;99.90;;;;;;4952178;29;20291;-70
2023/01/31 06:01:53;;;;;;;3.65;2.85;;;-0.20;99.90;;;;;;4952093;28;20299;-69
2023/01/31 06:04:20;;;;;;;4.55;3.15;;;-0.20;99.90;;;;;;4952470;29;20208;-68
2023/01/31 06:06:48;;;;;;;4.53;2.53;;;-0.20;99.90;;;;;;4952449;29;20594;-68
2023/01/31 06:09:14;;;;;;;6.30;2.88;;;-0.30;99.90;;;;;;4951762;29;20621;-69
2023/01/31 06:11:41;;;;;;;2.75;2.38;;;-0.30;99.90;;;;;;4952501;29;20204;-68
2023/01/31 06:14:08;;;;;;;4.55;3.50;;;-0.40;99.90;;;;;;4952160;29;20558;-68
2023/01/31 06:16:35;;;;;;;5.03;3.20;;;-0.30;99.90;;;;;;4952422;29;20262;-68
2023/01/31 06:19:02;;;;;;;5.40;3.35;;;-0.40;99.90;;;;;;4951782;29;20632;-68
2023/01/31 06:21:30;;;;;;;7.07;3.75;;;-0.40;99.90;;;;;;4952165;29;20667;-69
2023/01/31 06:23:58;;;;;;;4.57;3.45;;;-0.40;99.90;;;;;;4952139;29;20267;-66
2023/01/31 06:26:25;;;;;;;5.63;2.95;;;-0.40;99.90;;;;;;4952582;29;20227;-66
2023/01/31 06:28:51;;;;;;;4.43;3.25;;;-0.40;99.90;;;;;;4952144;29;20236;-68
2023/01/31 06:31:19;;;;;;;5.03;3.60;;;-0.50;99.90;;;;;;4952624;29;20205;-68
2023/01/31 06:33:46;;;;;;;5.35;3.10;;;-0.50;99.90;;;;;;4952452;29;20204;-68
2023/01/31 06:36:12;;;;;;;7.30;3.58;;;-0.40;99.90;;;;;;4952676;29;20327;-69
2023/01/31 06:38:39;;;;;;;5.13;3.33;;;-0.40;99.90;;;;;;4951741;29;20211;-69
2023/01/31 06:41:08;;;;;;;11.73;3.15;;;-0.40;99.90;;;;;;4952222;29;20300;-69
2023/01/31 06:43:34;;;;;;;5.45;3.88;;;-0.40;99.90;;;;;;4952202;29;20271;-68
2023/01/31 06:46:01;;;;;;;12.35;3.92;;;-0.40;99.90;;;;;;4952206;29;20243;-68
2023/01/31 06:48:28;;;;;;;3.42;2.78;;;-0.40;99.90;;;;;;4951806;29;20213;-67
2023/01/31 06:50:55;;;;;;;5.00;3.60;;;-0.40;99.90;;;;;;4952779;29;20256;-67
2023/01/31 06:53:22;;;;;;;4.50;2.60;;;-0.30;99.90;;;;;;4952472;29;20347;-67
2023/01/31 06:55:49;;;;;;;9.07;2.85;;;-0.40;99.90;;;;;;4951853;29;20272;-68
2023/01/31 06:58:17;;;;;;;5.97;3.40;;;-0.40;99.90;;;;;;4952058;29;20208;-66
2023/01/31 07:00:44;;;;;;;3.70;2.95;;;-0.30;99.90;;;;;;4952244;29;20304;-68
2023/01/31 07:03:11;;;;;;;7.15;4.20;;;-0.30;99.90;;;;;;4952482;29;20327;-73
2023/01/31 07:05:38;;;;;;;4.70;3.00;;;-0.30;99.90;;;;;;4952527;29;20268;-67
2023/01/31 07:08:05;;;;;;;5.28;3.55;;;-0.30;99.90;;;;;;4952239;29;20215;-68
2023/01/31 07:10:32;;;;;;;7.57;3.05;;;-0.30;99.90;;;;;;4951529;29;20676;-67
2023/01/31 07:13:00;;;;;;;3.90;2.95;;;-0.30;99.90;;;;;;4954273;28;20578;-67
2023/01/31 07:15:28;;;;;;;7.03;3.13;;;-0.30;99.90;;;;;;4955594;29;20469;-67
2023/01/31 07:17:58;;;;;;;4.05;3.65;;;-0.30;99.90;;;;;;4955738;29;20585;-67
2023/01/31 07:20:24;;;;;;;8.48;4.20;;;-0.30;99.90;;;;;;4955456;29;20205;-67
2023/01/31 07:22:55;;;;;;;5.25;3.30;;;-0.30;99.90;;;;;;4955452;29;20206;-69
2023/01/31 07:25:21;;;;;;;5.20;2.90;;;-0.30;99.90;;;;;;4956516;29;20235;-68
2023/01/31 07:27:48;;;;;;;3.63;2.83;;;-0.20;99.90;;;;;;4955120;29;20212;-68
2023/01/31 07:30:15;;;;;;;3.33;2.72;;;-0.20;99.90;;;;;;4954614;29;20200;-67
2023/01/31 07:32:44;;;;;;;4.32;2.75;;;-0.20;99.90;;;;;;4955050;29;20691;-69
2023/01/31 07:35:11;;;;;;;5.70;2.92;;;-0.10;99.90;;;;;;4955069;29;20231;-67
2023/01/31 07:37:38;;;;;;;6.45;3.55;;;-0.10;99.90;;;;;;4954909;29;20742;-67
2023/01/31 07:40:06;;;;;;;6.75;3.28;;;0.00;99.90;;;;;;4954394;29;20571;-67
2023/01/31 07:42:33;;;;;;;5.95;3.05;;;0.10;99.90;;;;;;4955050;29;20204;-67
2023/01/31 07:44:59;;;;;;;3.65;3.30;;;0.10;99.90;;;;;;4954835;29;20208;-66
2023/01/31 07:47:26;;;;;;;6.13;2.90;;;0.20;99.90;;;;;;4954948;29;20215;-66
2023/01/31 07:49:54;;;;;;;6.07;4.40;;;0.30;99.90;;;;;;4954356;29;20688;-67
2023/01/31 07:52:21;;;;;;;6.72;3.55;;;0.30;99.90;;;;;;4954784;29;20200;-68
2023/01/31 07:54:48;;;;;;;12.70;3.03;;;0.40;99.90;;;;;;4954899;29;20209;-67
2023/01/31 07:57:16;;;;;;;4.47;3.97;;;0.50;99.90;;;;;;4954598;29;20232;-68
2023/01/31 07:59:43;;;;;;;7.60;3.30;;;0.60;99.90;;;;;;4954464;29;20231;-69
2023/01/31 08:04:58;;;;;;;4.18;3.30;;;1.40;99.90;;;;;;4954934;29;20199;-70
2023/01/31 08:07:25;;;;;;;3.83;3.00;;;2.30;99.90;;;;;;4954676;29;20204;-69
2023/01/31 08:09:52;;;;;;;6.50;2.92;;;2.90;99.90;;;;;;4954369;29;20216;-69
2023/01/31 08:12:19;;;;;;;4.00;2.70;;;3.60;99.90;;;;;;4955006;29;20210;-68
2023/01/31 08:14:46;;;;;;;5.60;2.95;;;3.90;99.90;;;;;;4954411;29;20695;-69
2023/01/31 08:17:13;;;;;;;5.10;3.17;;;4.00;99.90;;;;;;4954601;29;20323;-69
2023/01/31 08:19:40;;;;;;;9.10;3.65;;;4.20;99.90;;;;;;4953995;29;20211;-69
2023/01/31 08:22:08;;;;;;;6.30;3.10;;;4.10;99.90;;;;;;4954406;29;20209;-68
2023/01/31 08:24:34;;;;;;;7.68;2.88;;;4.10;99.90;;;;;;4953503;28;20291;-70
2023/01/31 08:27:01;;;;;;;6.32;2.90;;;4.10;99.90;;;;;;4953797;29;20217;-68
2023/01/31 08:29:28;;;;;;;6.72;2.75;;;4.50;99.90;;;;;;4953574;29;20676;-69
2023/01/31 08:31:55;;;;;;;6.80;3.35;;;4.90;99.90;;;;;;4954001;29;20614;-69
2023/01/31 08:34:22;;;;;;;4.45;2.58;;;5.80;99.90;;;;;;4954078;29;20227;-69
2023/01/31 08:36:49;;;;;;;6.15;3.20;;;6.90;99.90;;;;;;4953257;29;20232;-69
2023/01/31 08:39:17;;;;;;;7.82;2.63;;;7.30;99.90;;;;;;4953543;29;20212;-69
2023/01/31 08:41:44;;;;;;;3.10;2.03;;;7.60;99.90;;;;;;4953544;29;20623;-69
2023/01/31 08:44:12;;;;;;;3.05;2.67;;;7.80;99.90;;;;;;4953617;29;20220;-68
2023/01/31 08:46:39;;;;;;;3.85;2.60;;;7.60;99.90;;;;;;4953555;29;20236;-69
2023/01/31 08:49:07;;;;;;;4.45;2.35;;;7.90;99.90;;;;;;4953204;29;20259;-69
2023/01/31 08:51:34;;;;;;;3.90;2.20;;;8.90;99.90;;;;;;4953397;29;20839;-67
2023/01/31 08:54:01;;;;;;;3.13;2.22;;;9.60;99.90;;;;;;4953152;29;20587;-67
2023/01/31 08:56:29;;;;;;;2.28;2.13;;;9.10;99.90;;;;;;4949044;29;20227;-69
2023/01/31 08:58:57;;;;;;;6.40;2.40;;;8.70;99.90;;;;;;4951436;29;20204;-67
2023/01/31 09:01:24;;;;;;;4.78;2.67;;;9.20;99.90;;;;;;4952540;29;20579;-68
2023/01/31 09:03:55;;;;;;;3.03;2.13;;;9.70;99.90;;;;;;4952303;29;20215;-68
2023/01/31 09:06:22;;;;;;;2.92;2.17;;;9.80;99.90;;;;;;4953029;29;20781;-67
2023/01/31 09:08:50;;;;;;;2.63;2.10;;;10.40;99.90;;;;;;4951063;29;20204;-68
2023/01/31 09:11:17;;;;;;;10.02;3.42;;;11.50;99.90;;;;;;4953057;29;20267;-68
2023/01/31 09:13:48;;;;;;;7.03;2.72;;;12.40;99.90;;;;;;4952612;29;20303;-68
2023/01/31 09:16:15;;;;;;;10.02;2.50;;;12.20;99.90;;;;;;4952723;29;20232;-69
2023/01/31 09:18:43;;;;;;;3.30;2.17;;;11.20;99.90;;;;;;4952225;29;20205;-69
2023/01/31 09:21:13;;;;;;;5.50;2.50;;;10.00;99.90;;;;;;4952494;29;20637;-68
2023/01/31 09:23:41;;;;;;;4.38;2.70;;;9.20;99.90;;;;;;4953019;29;20227;-69
2023/01/31 09:26:08;;;;;;;6.18;2.75;;;9.10;99.90;;;;;;4951592;29;20220;-68
2023/01/31 09:28:36;;;;;;;5.13;2.35;;;10.20;99.90;;;;;;4952275;29;20211;-68
2023/01/31 09:31:06;;;;;;;8.65;2.55;;;10.60;99.90;;;;;;4952386;29;20479;-68
2023/01/31 09:33:35;;;;;;;3.88;2.15;;;10.80;99.90;;;;;;4952106;29;20232;-67
2023/01/31 09:36:04;;;;;;;3.33;2.47;;;10.20;99.90;;;;;;4951685;28;20283;-68
2023/01/31 09:38:32;;;;;;;3.58;2.20;;;9.10;99.90;;;;;;4951309;29;20323;-67
2023/01/31 09:41:01;;;;;;;3.88;2.35;;;7.90;99.90;;;;;;4950279;29;20200;-67
2023/01/31 09:43:34;;;;;;;6.30;2.35;;;7.20;99.90;;;;;;4952516;29;20204;-68
2023/01/31 09:46:06;;;;;;;5.05;2.75;;;6.80;99.90;;;;;;4952241;29;20239;-68
2023/01/31 09:48:36;;;;;;;5.53;2.75;;;6.30;99.90;;;;;;4944674;29;20205;-67
2023/01/31 09:51:05;;;;;;;5.15;2.17;;;5.90;99.90;;;;;;4932670;29;20204;-72
2023/01/31 09:53:35;;;;;;;4.60;2.42;;;5.50;99.90;;;;;;4933557;29;20204;-68
2023/01/31 09:56:15;;;;;;;3.80;2.17;;;5.20;99.90;;;;;;4932494;29;20229;-69
2023/01/31 09:58:53;;;;;;;5.43;2.30;;;4.90;99.90;;;;;;4932713;29;20208;-68
2023/01/31 10:01:26;;;;;;;3.53;2.42;;;4.80;99.90;;;;;;4932748;29;20209;-69
2023/01/31 10:04:16;;;;;;;3.53;2.20;;;4.60;99.90;;;;;;4932696;29;20288;-69
2023/01/31 10:06:48;;;;;;;4.90;2.83;;;4.40;99.90;;;;;;4932668;29;20225;-69
2023/01/31 10:09:23;;;;;;;8.80;2.90;;;4.40;99.90;;;;;;4932727;29;20217;-69
2023/01/31 10:11:54;;;;;;;3.55;2.20;;;4.50;99.90;;;;;;4932847;29;20216;-69
2023/01/31 10:14:33;;;;;;;6.93;2.75;;;4.60;99.90;;;;;;4933005;29;20205;-69
2023/01/31 10:17:13;;;;;;;3.75;2.55;;;4.70;99.90;;;;;;4932375;29;20256;-68
2023/01/31 10:19:47;;;;;;;4.13;2.25;;;4.80;99.90;;;;;;4939062;29;20550;-68
2023/01/31 10:22:21;;;;;;;3.67;1.73;;;4.70;99.90;;;;;;4949366;29;20208;-67
2023/01/31 10:24:52;;;;;;;3.90;2.25;;;4.60;99.90;;;;;;4951478;29;20224;-68
2023/01/31 10:27:29;;;;;;;2.55;1.70;;;4.60;99.90;;;;;;4951886;29;20611;-68
2023/01/31 10:30:00;;;;;;;3.38;2.22;;;4.70;99.90;;;;;;4951073;29;20249;-70
2023/01/31 10:32:33;;;;;;;3.53;2.38;;;4.70;99.90;;;;;;4950167;29;20215;-69
2023/01/31 10:35:07;;;;;;;4.93;2.28;;;4.70;99.90;;;;;;4932072;29;20205;-69
2023/01/31 10:37:39;;;;;;;3.42;2.50;;;4.70;99.90;;;;;;4932931;29;20228;-68
2023/01/31 10:40:13;;;;;;;8.27;3.63;;;4.70;99.90;;;;;;4931613;29;20205;-69
2023/01/31 10:42:43;;;;;;;3.13;2.38;;;5.20;99.90;;;;;;4933193;29;20578;-69
2023/01/31 10:45:16;;;;;;;4.60;2.10;;;5.70;99.90;;;;;;4933008;29;20673;-67
2023/01/31 10:47:49;;;;;;;2.70;2.00;;;5.70;99.90;;;;;;4934636;29;20209;-67
2023/01/31 10:50:18;;;;;;;2.70;1.80;;;5.80;99.90;;;;;;4936426;29;20208;-68
2023/01/31 10:52:56;;;;;;;2.45;2.25;;;6.10;99.90;;;;;;4936096;29;20205;-67
2023/01/31 10:55:35;;;;;;;2.30;2.10;;;6.30;99.90;;;;;;4936321;29;20332;-68
2023/01/31 10:58:02;;;;;;;3.67;1.70;;;6.30;99.90;;;;;;4936154;29;20229;-67
2023/01/31 11:00:32;;;;;;;7.20;1.95;;;6.10;99.90;;;;;;4945665;29;20212;-66
2023/01/31 11:03:00;;;;;;;2.88;1.95;;;5.90;99.90;;;;;;4954841;29;20212;-66
2023/01/31 11:05:30;;;;;;;2.88;2.55;;;5.60;99.90;;;;;;4954687;29;20227;-66
2023/01/31 11:07:58;;;;;;;8.25;2.90;;;5.50;99.90;;;;;;4955162;29;20197;-66
2023/01/31 11:10:27;;;;;;;2.42;1.85;;;5.60;99.90;;;;;;4954661;29;20207;-66
2023/01/31 11:12:55;;;;;;;5.53;2.20;;;5.60;99.90;;;;;;4955200;29;20207;-66
2023/01/31 11:15:27;;;;;;;3.97;2.10;;;5.70;99.90;;;;;;4954984;29;20228;-66
2023/01/31 11:18:00;;;;;;;3.78;1.83;;;5.60;99.90;;;;;;4954490;29;20591;-67
2023/01/31 11:20:30;;;;;;;3.15;2.00;;;5.50;99.90;;;;;;4955198;29;20289;-67
2023/01/31 11:22:59;;;;;;;4.40;2.13;;;5.30;99.90;;;;;;4954979;29;20223;-68
2023/01/31 11:25:28;;;;;;;2.40;2.03;;;5.20;99.90;;;;;;4955409;29;20375;-68
2023/01/31 11:27:57;;;;;;;4.75;1.98;;;4.90;99.90;;;;;;4954905;29;20210;-67
2023/01/31 11:30:29;;;;;;;2.63;2.22;;;4.80;99.90;;;;;;4954962;29;20210;-68
2023/01/31 11:32:57;;;;;;;6.57;2.30;;;4.80;99.90;;;;;;4954658;29;20204;-67
2023/01/31 11:35:28;;;;;;;4.15;2.00;;;4.90;99.90;;;;;;4955248;29;20224;-68
2023/01/31 11:37:56;;;;;;;4.43;2.13;;;5.20;99.90;;;;;;4954825;29;20235;-68
2023/01/31 11:40:29;;;;;;;3.58;2.22;;;6.20;99.90;;;;;;4954581;29;20566;-67
2023/01/31 11:42:57;;;;;;;2.55;1.65;;;7.20;99.90;;;;;;4954887;29;20622;-68
2023/01/31 11:45:27;;;;;;;3.47;2.08;;;7.40;99.90;;;;;;4954728;29;20230;-68
2023/01/31 11:47:56;;;;;;;3.75;1.90;;;7.20;99.90;;;;;;4954838;29;20268;-67
2023/01/31 11:50:31;;;;;;;2.58;1.70;;;6.60;99.90;;;;;;4954396;29;20207;-68
2023/01/31 11:53:00;;;;;;;1.85;1.50;;;6.30;99.90;;;;;;4954797;29;20262;-67
2023/01/31 11:55:28;;;;;;;2.45;2.25;;;6.10;99.90;;;;;;4954871;29;20243;-67
2023/01/31 11:57:58;;;;;;;3.63;1.33;;;5.80;99.90;;;;;;4954009;28;20224;-67
2023/01/31 12:00:27;;;;;;;3.17;1.70;;;5.60;99.90;;;;;;4953923;29;20702;-67
2023/01/31 12:03:02;;;;;;;2.55;1.42;;;5.60;99.90;;;;;;4954547;29;20208;-67
2023/01/31 12:05:41;;;;;;;1.77;1.65;;;5.70;99.90;;;;;;4955009;29;20594;-67
2023/01/31 12:08:28;;;;;;;1.77;1.50;;;5.60;99.90;;;;;;4955278;29;20676;-67
2023/01/31 12:10:55;;;;;;;1.90;1.70;;;5.60;99.90;;;;;;4954835;29;20232;-68
2023/01/31 12:13:23;;;;;;;6.03;1.90;;;5.50;99.90;;;;;;4954599;29;20231;-67
2023/01/31 12:15:56;;;;;;;3.10;1.95;;;5.40;99.90;;;;;;4954105;29;20236;-67
2023/01/31 12:18:37;;;;;;;2.78;1.15;;;5.40;99.90;;;;;;4935873;29;20233;-67
2023/01/31 12:21:13;;;;;;;4.68;2.20;;;5.40;99.90;;;;;;4934890;29;20373;-68
2023/01/31 12:23:49;;;;;;;7.38;2.65;;;5.20;99.90;;;;;;4935150;29;20565;-69
2023/01/31 12:26:24;;;;;;;2.08;1.65;;;5.10;99.90;;;;;;4934916;29;20227;-68
2023/01/31 12:29:13;;;;;;;5.07;1.67;;;5.20;99.90;;;;;;4933783;29;20495;-68
2023/01/31 12:32:06;;;;;;;4.95;1.88;;;5.10;99.90;;;;;;4934457;29;20209;-68
2023/01/31 12:34:58;;;;;;;9.70;1.80;;;5.10;99.90;;;;;;4934913;29;20213;-68
2023/01/31 12:37:39;;;;;;;3.45;1.50;;;5.00;99.90;;;;;;4934729;29;20224;-68
2023/01/31 12:40:25;;;;;;;2.42;1.80;;;5.20;99.90;;;;;;4933561;29;20216;-70
2023/01/31 12:42:57;;;;;;;3.67;1.92;;;5.50;99.90;;;;;;4933369;29;20208;-69
2023/01/31 12:45:42;;;;;;;1.40;1.20;;;5.50;99.90;;;;;;4937742;29;20225;-69
2023/01/31 12:48:39;;;;;;;2.17;1.13;;;5.30;99.90;;;;;;4935015;29;20208;-69
2023/01/31 12:51:20;;;;;;;3.85;1.60;;;5.10;99.90;;;;;;4935618;29;20232;-66
2023/01/31 12:54:00;;;;;;;2.88;1.92;;;5.20;99.90;;;;;;4934215;29;20230;-70
2023/01/31 12:56:54;;;;;;;3.15;1.50;;;5.10;99.90;;;;;;4934582;29;20594;-69
2023/01/31 12:59:31;;;;;;;2.88;1.90;;;5.10;99.90;;;;;;4933847;29;20233;-68
2023/01/31 13:02:11;;;;;;;4.28;1.85;;;4.90;99.90;;;;;;4934036;29;20204;-69
2023/01/31 13:04:43;;;;;;;2.85;1.98;;;4.80;99.90;;;;;;4934182;29;20685;-68
2023/01/31 13:07:14;;;;;;;3.95;1.85;;;4.80;99.90;;;;;;4934141;29;20264;-68
2023/01/31 13:09:43;;;;;;;5.72;2.28;;;4.80;99.90;;;;;;4939188;28;20575;-68
2023/01/31 13:12:15;;;;;;;8.10;2.08;;;4.80;99.90;;;;;;4952835;29;20208;-67
2023/01/31 13:14:44;;;;;;;2.65;1.73;;;4.80;99.90;;;;;;4953074;29;20600;-67
2023/01/31 13:17:14;;;;;;;4.30;2.67;;;4.90;99.90;;;;;;4952038;29;20249;-67
2023/01/31 13:19:46;;;;;;;4.80;1.85;;;4.90;99.90;;;;;;4944929;29;20247;-68
2023/01/31 13:22:17;;;;;;;2.95;1.95;;;4.80;99.90;;;;;;4952649;29;20216;-69